Pagina principale
METAR-TAF:

METAR-TAF

Aeroporti :

Najaf, Iraq

latitudine: 31-59-23N, longitudine: 44-24-15E, altezza: 31 m

Osservazione

Il bollettino è stato emesso 50 minuti fa, alle 13:00 UTC
Vento 12 kt da nord
Temperature 35°C
Umidità 14%
Pressione 1012 hPa
Visibilità 10 km o più
nessuna nube inferiore a 1500 m e nessun cumulonembo

METAR: ORNI 261300Z 36012KT CAVOK 35/04 Q1012 NOSIG

Ora: 16:50 (13:50 UTC)

Previsione

Il bollettino è stato emesso 2 ore e 50 minuti fa, alle 11:00 UTC
Previsione valida dal 26 alle 12 UTC al 27 alle 12 UTC
Vento 12 kt da nord/nord-ovest
Visibilità 10 km o più
nessuna nube inferiore a 1500 m e nessun cumulonembo

TAF: ORNI 261100Z 2612/2712 34012KT CAVOK

Osservazioni e previsioni meteorologiche di più di 4000 aeroporti (messaggi METAR e TAF).

Le stazioni disponibili sono rappresentate dai dischi gialli e rossi sulla carta.

Puntare il mouse per vedere il nome della stazione.

Clicca sopra per visualizzare le osservazioni e previsioni meteorologiche.

Per cambiare la mappa : fare clic sui pulsanti verdi con una croce nera per ingrandire, il pulsante verde con un trattino per diminuire, o sulla freccia verde per le mappe adiacenti.


METAR-TAF: